createdAt,value
2022-12-15T00:01:32.761Z,8.89
2022-12-15T00:04:05.056Z,9.14
2022-12-15T00:06:38.062Z,8.64
2022-12-15T00:09:14.419Z,7.04
2022-12-15T00:11:47.457Z,7.09
2022-12-15T00:14:20.957Z,6.69
2022-12-15T00:16:52.452Z,6.53
2022-12-15T00:19:29.959Z,7.06
2022-12-15T00:22:01.488Z,6.67
2022-12-15T00:24:33.709Z,6.76
2022-12-15T00:27:05.337Z,6.98
2022-12-15T00:29:36.940Z,7.12
2022-12-15T00:32:08.539Z,7.15
2022-12-15T00:34:40.063Z,7.68
2022-12-15T00:37:11.628Z,7.89
2022-12-15T00:39:43.221Z,8.12
2022-12-15T00:42:14.761Z,8.11
2022-12-15T00:44:46.353Z,8.27
2022-12-15T00:47:18.072Z,8.63
2022-12-15T00:49:49.717Z,8.62
2022-12-15T00:52:21.323Z,8.27
2022-12-15T00:54:52.984Z,8.18
2022-12-15T00:57:24.721Z,8.22
2022-12-15T00:59:56.397Z,7.97
2022-12-15T01:02:28.243Z,8.18
2022-12-15T01:04:59.936Z,8.36
2022-12-15T01:07:31.684Z,8.32
2022-12-15T01:10:03.969Z,8.09
2022-12-15T01:12:35.495Z,8.00
2022-12-15T01:15:07.538Z,7.99
2022-12-15T01:17:39.055Z,8.01
2022-12-15T01:20:11.270Z,7.55
2022-12-15T01:22:46.925Z,8.03
2022-12-15T01:25:20.194Z,7.70
2022-12-15T01:27:52.147Z,8.04
2022-12-15T01:30:26.393Z,7.92
2022-12-15T01:32:57.922Z,7.91
2022-12-15T01:35:29.452Z,7.78
2022-12-15T01:38:00.957Z,7.90
2022-12-15T01:40:32.658Z,7.75
2022-12-15T01:43:11.549Z,7.88
2022-12-15T01:45:46.138Z,8.09
2022-12-15T01:48:29.646Z,8.15
2022-12-15T01:51:15.338Z,8.42
2022-12-15T01:54:00.258Z,8.79
2022-12-15T01:56:37.924Z,8.49
2022-12-15T01:59:17.981Z,8.89
2022-12-15T02:01:50.412Z,8.75
2022-12-15T02:04:24.374Z,8.53
2022-12-15T02:06:55.969Z,8.20
2022-12-15T02:09:28.864Z,8.23
2022-12-15T02:12:40.506Z,8.17
2022-12-15T02:15:34.359Z,8.56
2022-12-15T02:18:36.796Z,8.16
2022-12-15T02:21:11.172Z,8.11
2022-12-15T02:24:15.410Z,8.22
2022-12-15T02:26:59.040Z,7.59
2022-12-15T02:29:51.784Z,8.12
2022-12-15T02:32:55.398Z,7.72
2022-12-15T02:35:53.313Z,7.85
2022-12-15T02:38:34.761Z,8.23
2022-12-15T02:41:26.647Z,8.60
2022-12-15T02:43:59.500Z,8.41
2022-12-15T02:47:03.330Z,8.41
2022-12-15T02:49:49.695Z,9.15
2022-12-15T02:53:02.842Z,8.88
2022-12-15T02:56:12.957Z,9.06
2022-12-15T02:59:06.023Z,9.15
2022-12-15T03:01:56.248Z,9.23
2022-12-15T03:04:28.426Z,8.82
2022-12-15T03:07:05.653Z,8.40
2022-12-15T03:09:37.690Z,8.02
2022-12-15T03:12:09.351Z,8.51
2022-12-15T03:14:46.646Z,7.43
2022-12-15T03:17:18.247Z,7.59
2022-12-15T03:19:49.871Z,7.75
2022-12-15T03:22:21.621Z,7.99
2022-12-15T03:24:53.208Z,8.50
2022-12-15T03:27:24.800Z,9.71
2022-12-15T03:29:56.460Z,9.01
2022-12-15T03:32:29.521Z,8.32
2022-12-15T03:35:01.277Z,8.52
2022-12-15T03:37:32.847Z,8.42
2022-12-15T03:40:06.397Z,8.44
2022-12-15T03:42:38.033Z,8.25
2022-12-15T03:45:09.851Z,8.17
2022-12-15T03:47:42.124Z,8.42
2022-12-15T03:50:17.172Z,8.26
2022-12-15T03:52:59.789Z,8.49
2022-12-15T03:55:31.750Z,8.26
2022-12-15T03:58:03.387Z,8.47
2022-12-15T04:00:35.079Z,8.61
2022-12-15T04:03:06.784Z,7.78
2022-12-15T04:05:38.830Z,7.87
2022-12-15T04:08:10.470Z,8.01
2022-12-15T04:10:42.183Z,7.67
2022-12-15T04:13:13.786Z,6.94
2022-12-15T04:15:45.446Z,6.61
2022-12-15T04:18:17.030Z,6.38
2022-12-15T04:20:50.402Z,6.57
2022-12-15T04:23:22.491Z,6.15
2022-12-15T04:25:54.107Z,6.19
2022-12-15T04:28:25.657Z,5.57
2022-12-15T04:31:12.745Z,5.58
2022-12-15T04:33:49.880Z,5.45
2022-12-15T04:36:22.671Z,4.92
2022-12-15T04:38:55.402Z,5.13
2022-12-15T04:41:27.053Z,5.29
2022-12-15T04:43:59.167Z,5.15
2022-12-15T04:46:30.866Z,5.62
2022-12-15T04:49:02.531Z,5.58
2022-12-15T04:51:34.190Z,5.54
2022-12-15T04:54:05.876Z,5.38
2022-12-15T04:56:37.385Z,5.23
2022-12-15T04:59:08.935Z,5.27
2022-12-15T05:01:40.757Z,5.01
2022-12-15T05:04:13.093Z,4.79
2022-12-15T05:06:44.754Z,4.74
2022-12-15T05:09:16.413Z,5.05
2022-12-15T05:11:48.006Z,5.54
2022-12-15T05:14:19.630Z,5.00
2022-12-15T05:16:51.245Z,5.18
2022-12-15T05:19:22.867Z,5.36
2022-12-15T05:21:54.426Z,4.96
2022-12-15T05:24:25.962Z,5.06
2022-12-15T05:26:57.537Z,4.79
2022-12-15T05:29:29.117Z,4.95
2022-12-15T05:32:00.876Z,4.97
2022-12-15T05:34:34.752Z,5.31
2022-12-15T05:37:06.546Z,5.10
2022-12-15T05:39:38.125Z,5.14
2022-12-15T05:42:09.694Z,4.83
2022-12-15T05:44:41.225Z,4.93
2022-12-15T05:47:12.839Z,4.94
2022-12-15T05:49:44.413Z,5.07
2022-12-15T05:52:15.994Z,4.99
2022-12-15T05:54:47.621Z,5.08
2022-12-15T05:57:19.161Z,4.49
2022-12-15T05:59:50.767Z,4.76
2022-12-15T06:02:22.397Z,4.74
2022-12-15T06:04:54.126Z,4.37
2022-12-15T06:07:25.836Z,4.77
2022-12-15T06:09:57.365Z,4.63
2022-12-15T06:12:29.213Z,4.44
2022-12-15T06:15:00.751Z,4.64
2022-12-15T06:17:32.339Z,4.41
2022-12-15T06:20:04.259Z,4.45
2022-12-15T06:22:35.860Z,4.59
2022-12-15T06:25:07.930Z,4.24
2022-12-15T06:27:39.468Z,4.42
2022-12-15T06:30:11.372Z,4.59
2022-12-15T06:32:42.903Z,4.52
2022-12-15T06:35:14.571Z,4.53
2022-12-15T06:37:46.180Z,4.82
2022-12-15T06:40:17.817Z,4.69
2022-12-15T06:42:49.443Z,4.45
2022-12-15T06:45:21.027Z,4.59
2022-12-15T06:47:56.596Z,4.61
2022-12-15T06:50:34.069Z,4.68
2022-12-15T06:53:05.583Z,4.73
2022-12-15T06:55:37.224Z,4.92
2022-12-15T06:58:09.182Z,5.18
2022-12-15T07:00:43.988Z,5.03
2022-12-15T07:03:18.196Z,5.00
2022-12-15T07:06:05.545Z,5.23
2022-12-15T07:08:41.404Z,5.80
2022-12-15T07:11:13.747Z,6.14
2022-12-15T07:13:49.664Z,5.62
2022-12-15T07:16:22.924Z,5.59
2022-12-15T07:18:54.854Z,4.98
2022-12-15T07:21:26.708Z,5.22
2022-12-15T07:23:59.325Z,5.56
2022-12-15T07:26:31.765Z,5.43
2022-12-15T07:29:03.867Z,5.92
2022-12-15T07:31:35.504Z,6.00
2022-12-15T07:34:07.140Z,6.48
2022-12-15T07:36:38.887Z,6.56
2022-12-15T07:39:10.583Z,6.79
2022-12-15T07:41:42.105Z,6.92
2022-12-15T07:44:14.353Z,6.34
2022-12-15T07:46:57.689Z,6.24
2022-12-15T07:49:30.556Z,6.81
2022-12-15T07:52:02.596Z,6.76
2022-12-15T07:54:35.003Z,7.01
2022-12-15T07:57:07.303Z,7.14
2022-12-15T07:59:39.034Z,6.73
2022-12-15T08:02:12.530Z,6.09
2022-12-15T08:04:44.317Z,6.47
2022-12-15T08:07:21.951Z,7.04
2022-12-15T08:09:56.455Z,6.56
2022-12-15T08:12:29.304Z,6.53
2022-12-15T08:15:00.925Z,7.03
2022-12-15T08:17:32.816Z,6.87
2022-12-15T08:20:09.731Z,7.43
2022-12-15T08:22:41.891Z,7.69
2022-12-15T08:25:13.494Z,7.71
2022-12-15T08:27:45.201Z,7.30
2022-12-15T08:30:17.246Z,7.82
2022-12-15T08:32:52.049Z,8.02
2022-12-15T08:35:54.571Z,7.98
2022-12-15T08:38:15.757Z,8.21
2022-12-15T08:40:47.782Z,8.00
2022-12-15T08:43:19.528Z,7.91
2022-12-15T08:45:51.367Z,8.15
2022-12-15T08:48:23.114Z,8.12
2022-12-15T08:50:59.118Z,8.47
2022-12-15T08:53:34.199Z,8.51
2022-12-15T08:56:08.930Z,8.71
2022-12-15T08:58:40.888Z,10.53
2022-12-15T09:01:22.189Z,11.41
2022-12-15T09:03:56.305Z,11.51
2022-12-15T09:06:30.838Z,11.29
2022-12-15T09:09:07.077Z,13.11
2022-12-15T18:41:53.784Z,11.11
2022-12-15T18:44:28.801Z,6.16
2022-12-15T18:47:00.402Z,5.19
2022-12-15T18:49:32.071Z,4.11
2022-12-15T18:52:03.661Z,4.25
2022-12-15T18:54:36.826Z,3.87
2022-12-15T18:57:32.190Z,3.45
2022-12-15T19:00:06.914Z,3.29
2022-12-15T19:02:38.668Z,3.14
2022-12-15T19:05:10.341Z,3.32
2022-12-15T19:07:42.022Z,3.14
2022-12-15T19:10:14.711Z,3.53
2022-12-15T19:12:46.342Z,3.59
2022-12-15T19:15:19.658Z,3.17
2022-12-15T19:17:51.282Z,3.34
2022-12-15T19:20:22.941Z,3.65
2022-12-15T19:22:54.673Z,3.24
2022-12-15T19:25:29.401Z,3.44
2022-12-15T19:28:01.578Z,3.65
2022-12-15T19:30:38.522Z,4.34
2022-12-15T19:33:14.822Z,3.66
2022-12-15T19:35:50.394Z,4.01
2022-12-15T19:38:26.680Z,3.58
2022-12-15T19:40:59.927Z,4.24
2022-12-15T19:43:31.987Z,4.20
2022-12-15T19:46:04.191Z,4.51
2022-12-15T19:48:35.752Z,4.57
2022-12-15T19:51:14.940Z,4.50
2022-12-15T19:53:48.025Z,4.46
2022-12-15T19:56:21.667Z,5.17
2022-12-15T19:58:53.236Z,7.22
2022-12-15T20:01:25.079Z,7.34
2022-12-15T20:03:56.999Z,5.62
2022-12-15T20:06:28.767Z,5.19
2022-12-15T20:09:00.429Z,4.88
2022-12-15T20:11:32.946Z,4.79
2022-12-15T20:14:13.921Z,4.82
2022-12-15T20:16:45.980Z,4.45
2022-12-15T20:19:17.675Z,4.61
2022-12-15T20:21:49.299Z,5.04
2022-12-15T20:24:21.068Z,5.13
2022-12-15T20:26:52.690Z,5.52
2022-12-15T20:29:31.903Z,5.56
2022-12-15T20:32:14.219Z,5.61
2022-12-15T20:34:47.523Z,5.64
2022-12-15T20:37:28.926Z,5.76
2022-12-15T20:40:00.606Z,5.34
2022-12-15T20:42:32.129Z,5.27
2022-12-15T20:45:04.023Z,5.32
2022-12-15T20:47:40.937Z,5.33
2022-12-15T20:50:48.918Z,5.03
2022-12-15T20:53:25.121Z,4.82
2022-12-15T20:55:56.788Z,4.76
2022-12-15T20:58:32.850Z,5.28
2022-12-15T21:01:17.889Z,4.80
2022-12-15T21:03:53.116Z,5.09
2022-12-15T21:06:44.264Z,5.10
2022-12-15T21:09:16.026Z,5.55
2022-12-15T21:11:47.973Z,5.53
2022-12-15T21:14:22.938Z,5.07
2022-12-15T21:16:54.585Z,5.23
2022-12-15T21:19:27.128Z,5.60
2022-12-15T21:22:01.399Z,5.36
2022-12-15T21:24:34.368Z,5.41
2022-12-15T21:27:06.388Z,5.10
2022-12-15T21:29:37.938Z,5.23
2022-12-15T21:32:09.876Z,5.33
2022-12-15T21:34:41.564Z,5.51
2022-12-15T21:37:30.449Z,6.20
2022-12-15T21:40:02.251Z,6.64
2022-12-15T21:42:36.368Z,5.94
2022-12-15T21:45:15.635Z,5.87
2022-12-15T21:47:48.888Z,5.79
2022-12-15T21:50:20.424Z,5.86
2022-12-15T21:52:52.137Z,5.73
2022-12-15T21:55:30.083Z,5.51
2022-12-15T21:58:02.140Z,5.61
2022-12-15T22:00:33.707Z,5.83
2022-12-15T22:03:05.322Z,5.84
2022-12-15T22:05:36.979Z,5.66
2022-12-15T22:08:18.434Z,5.35
2022-12-15T22:10:52.002Z,5.81
2022-12-15T22:13:23.968Z,5.91
2022-12-15T22:15:55.663Z,5.81
2022-12-15T22:18:27.247Z,5.70
2022-12-15T22:20:58.881Z,5.73
2022-12-15T22:23:30.510Z,6.03
2022-12-15T22:26:02.599Z,5.97
2022-12-15T22:28:34.948Z,6.21
2022-12-15T22:31:06.769Z,6.35
2022-12-15T22:33:38.393Z,6.03
2022-12-15T22:36:09.981Z,6.37
2022-12-15T22:38:41.530Z,6.48
2022-12-15T22:41:23.936Z,6.37
2022-12-15T22:43:56.930Z,6.55
2022-12-15T22:46:28.598Z,6.25
2022-12-15T22:49:00.376Z,6.24
2022-12-15T22:51:32.021Z,6.92
2022-12-15T22:54:23.536Z,7.24
2022-12-15T22:57:00.788Z,8.27
2022-12-15T22:59:38.205Z,8.23
2022-12-15T23:02:11.220Z,8.38
2022-12-15T23:04:42.853Z,8.24
2022-12-15T23:07:14.502Z,7.78
2022-12-15T23:09:46.151Z,7.71
2022-12-15T23:12:17.717Z,7.48
2022-12-15T23:14:49.361Z,7.62
2022-12-15T23:17:20.953Z,7.59
2022-12-15T23:19:52.526Z,7.71
2022-12-15T23:22:24.219Z,7.90
2022-12-15T23:24:55.764Z,7.61
2022-12-15T23:27:27.368Z,7.25
2022-12-15T23:29:59.446Z,7.36
2022-12-15T23:32:31.039Z,7.34
2022-12-15T23:35:02.542Z,6.70
2022-12-15T23:37:34.102Z,6.71
2022-12-15T23:40:06.251Z,7.20
2022-12-15T23:42:37.838Z,6.49
2022-12-15T23:45:09.912Z,6.06
2022-12-15T23:47:41.538Z,5.87
2022-12-15T23:50:13.165Z,5.81
2022-12-15T23:52:44.954Z,6.05
2022-12-15T23:55:16.551Z,5.59
2022-12-15T23:57:48.402Z,5.91
